Time;durP1;ratioP1;P1;durP2;ratioP2;P2;SDS_P1;SDS_P2;PMS_P1;PMS_P2;Temp;Humidity;BMP_temperature;BMP_pressure;BME280_temperature;BME280_humidity;BME280_pressure;Samples;Min_cycle;Max_cycle;Signal;HPM_P1;HPM_P2
2023/01/13 00:01:42;;;;;;;1.63;0.60;;;10.30;99.90;;;;;;10465347;28;20584;-74
2023/01/13 00:06:42;;;;;;;3.30;0.90;;;10.30;99.90;;;;;;10465185;28;20314;-74
2023/01/13 00:11:43;;;;;;;3.87;1.00;;;10.30;99.90;;;;;;10472262;28;20283;-74
2023/01/13 00:16:43;;;;;;;3.90;0.90;;;10.40;99.90;;;;;;10453644;28;20689;-74
2023/01/13 00:21:44;;;;;;;2.50;0.67;;;10.40;99.90;;;;;;10467437;28;20253;-73
2023/01/13 00:26:44;;;;;;;2.23;0.70;;;10.40;99.90;;;;;;10486533;28;20242;-71
2023/01/13 00:31:47;;;;;;;2.37;0.50;;;10.40;99.90;;;;;;10486365;28;20612;-70
2023/01/13 00:36:49;;;;;;;1.53;0.63;;;10.40;99.90;;;;;;10476132;28;20223;-71
2023/01/13 00:47:09;;;;;;;4.30;1.10;;;10.40;99.90;;;;;;10473354;28;20686;-72
2023/01/13 00:52:10;;;;;;;2.17;0.77;;;10.50;99.90;;;;;;10485639;28;20229;-70
2023/01/13 00:57:11;;;;;;;3.53;0.83;;;10.50;99.90;;;;;;10453823;28;20227;-71
2023/01/13 01:02:11;;;;;;;3.30;0.60;;;10.50;99.90;;;;;;10472695;28;20230;-70
2023/01/13 01:07:12;;;;;;;0.77;0.50;;;10.50;99.90;;;;;;10487353;28;20727;-70
2023/01/13 01:12:13;;;;;;;4.07;0.67;;;10.50;99.90;;;;;;10471418;28;20723;-69
2023/01/13 01:17:13;;;;;;;1.13;0.60;;;10.50;99.90;;;;;;10468259;28;20249;-71
2023/01/13 01:22:14;;;;;;;1.13;0.67;;;10.50;99.90;;;;;;10453090;28;20758;-73
2023/01/13 01:27:14;;;;;;;4.43;1.00;;;10.50;99.90;;;;;;10458434;28;20214;-70
2023/01/13 01:32:15;;;;;;;2.07;0.80;;;10.50;99.90;;;;;;10459643;28;20234;-70
2023/01/13 01:37:16;;;;;;;2.73;0.50;;;10.50;99.90;;;;;;10469478;28;20246;-72
2023/01/13 01:47:37;;;;;;;1.20;0.60;;;10.60;99.90;;;;;;10471368;28;20658;-74
2023/01/13 01:52:42;;;;;;;1.80;0.70;;;10.60;99.90;;;;;;10475827;28;20305;-72
2023/01/13 01:58:00;;;;;;;1.00;0.70;;;10.60;99.90;;;;;;10471811;28;20827;-71
2023/01/13 02:03:03;;;;;;;2.13;0.70;;;10.60;99.90;;;;;;10476780;28;20213;-73
2023/01/13 02:08:05;;;;;;;4.60;0.67;;;10.60;99.90;;;;;;10470747;28;20218;-73
2023/01/13 02:13:10;;;;;;;0.87;0.50;;;10.60;99.90;;;;;;10456232;28;20653;-73
2023/01/13 02:18:42;;;;;;;1.97;0.50;;;10.60;99.90;;;;;;10469053;28;20209;-74
2023/01/13 02:35:58;;;;;;;3.07;0.77;;;10.70;99.90;;;;;;10470653;28;20212;-71
2023/01/13 02:46:43;;;;;;;1.57;0.60;;;10.70;99.90;;;;;;10461080;28;20210;-71
2023/01/13 02:51:46;;;;;;;0.90;0.40;;;10.70;99.90;;;;;;10471024;28;20697;-72
2023/01/13 02:56:49;;;;;;;1.37;0.43;;;10.60;99.90;;;;;;10470718;28;20266;-74
2023/01/13 03:01:53;;;;;;;0.50;0.40;;;10.60;99.90;;;;;;10476973;28;20292;-72
2023/01/13 03:07:11;;;;;;;0.80;0.50;;;10.70;99.90;;;;;;10469593;28;20298;-72
2023/01/13 03:12:23;;;;;;;3.83;0.73;;;10.60;99.90;;;;;;10464862;28;20658;-73
2023/01/13 03:17:36;;;;;;;2.43;0.70;;;10.60;99.90;;;;;;10466835;28;20653;-73
2023/01/13 03:23:00;;;;;;;1.20;0.60;;;10.60;99.90;;;;;;10474095;28;20221;-73
2023/01/13 03:28:04;;;;;;;2.23;0.77;;;10.70;99.90;;;;;;10462039;28;20671;-73
2023/01/13 03:33:16;;;;;;;1.23;0.60;;;10.70;99.90;;;;;;10466131;28;20732;-74
2023/01/13 03:38:34;;;;;;;1.27;0.60;;;10.70;99.90;;;;;;10464525;28;20648;-72
2023/01/13 03:49:03;;;;;;;2.73;1.10;;;10.70;99.90;;;;;;10471454;28;20316;-72
2023/01/13 03:54:09;;;;;;;1.03;0.63;;;10.70;99.90;;;;;;10457465;28;20314;-72
2023/01/13 03:59:15;;;;;;;1.73;0.53;;;10.70;99.90;;;;;;10461938;28;20229;-73
2023/01/13 04:04:24;;;;;;;1.03;0.53;;;10.70;99.90;;;;;;10482552;28;20209;-73
2023/01/13 04:09:24;;;;;;;1.53;0.60;;;10.70;99.90;;;;;;10473699;28;20227;-72
2023/01/13 04:14:27;;;;;;;3.37;0.63;;;10.60;99.90;;;;;;10483258;28;20214;-70
2023/01/13 04:19:28;;;;;;;3.37;0.60;;;10.60;99.90;;;;;;10462214;28;20267;-70
2023/01/13 04:24:28;;;;;;;1.17;0.43;;;10.60;99.90;;;;;;10474451;28;20222;-71
2023/01/13 04:29:29;;;;;;;2.40;0.47;;;10.60;99.90;;;;;;10462216;28;20306;-72
2023/01/13 04:34:30;;;;;;;2.67;0.50;;;10.60;99.90;;;;;;10473188;28;20215;-71
2023/01/13 04:39:30;;;;;;;1.50;0.67;;;10.70;99.90;;;;;;10492969;28;20689;-73
2023/01/13 04:44:34;;;;;;;0.90;0.50;;;10.70;99.90;;;;;;10473464;28;20400;-73
2023/01/13 04:49:34;;;;;;;2.53;0.60;;;10.70;99.90;;;;;;10471032;28;20694;-76
2023/01/13 04:54:35;;;;;;;2.03;0.67;;;10.70;99.90;;;;;;10459783;28;20214;-71
2023/01/13 04:59:35;;;;;;;3.07;0.70;;;10.70;99.90;;;;;;10473198;28;20231;-72
2023/01/13 05:04:36;;;;;;;1.90;0.80;;;10.70;99.90;;;;;;10465218;28;20222;-75
2023/01/13 05:09:36;;;;;;;1.23;0.60;;;10.60;99.90;;;;;;10462080;28;20610;-73
2023/01/13 05:19:56;;;;;;;1.17;0.60;;;10.60;99.90;;;;;;10475935;28;20205;-73
2023/01/13 05:30:24;;;;;;;3.60;0.70;;;10.60;99.90;;;;;;10477465;28;20223;-71
2023/01/13 05:35:25;;;;;;;2.43;0.60;;;10.50;99.90;;;;;;10460191;28;20348;-76
2023/01/13 05:46:06;;;;;;;1.73;1.00;;;10.20;99.90;;;;;;10477660;28;20215;-75
2023/01/13 05:51:09;;;;;;;4.07;1.03;;;10.10;99.90;;;;;;10471188;28;20622;-73
2023/01/13 05:56:10;;;;;;;2.43;1.10;;;10.00;99.90;;;;;;10476451;28;20230;-72
2023/01/13 06:01:11;;;;;;;2.73;0.80;;;10.00;99.90;;;;;;10469753;28;20230;-72
2023/01/13 06:06:11;;;;;;;3.13;0.93;;;9.90;99.90;;;;;;10484889;28;20733;-75
2023/01/13 06:11:12;;;;;;;1.37;0.80;;;9.90;99.90;;;;;;10450954;28;20245;-69
2023/01/13 06:16:13;;;;;;;2.40;0.30;;;9.80;99.90;;;;;;10480857;28;20225;-72
2023/01/13 06:21:16;;;;;;;1.33;0.40;;;9.70;99.90;;;;;;10483422;28;20237;-69
2023/01/13 06:26:19;;;;;;;0.40;0.30;;;9.50;99.90;;;;;;10475448;28;20221;-72
2023/01/13 06:31:20;;;;;;;1.37;0.40;;;9.40;99.90;;;;;;10466236;28;20227;-68
2023/01/13 06:36:36;;;;;;;1.00;0.60;;;9.40;99.90;;;;;;10466273;28;20792;-68
2023/01/13 06:46:55;;;;;;;2.33;1.33;;;9.30;99.90;;;;;;10482909;28;20215;-69
2023/01/13 06:51:56;;;;;;;1.90;0.43;;;9.30;99.90;;;;;;10471237;28;20582;-69
2023/01/13 06:57:01;;;;;;;2.90;0.70;;;9.20;99.90;;;;;;10479103;28;20218;-71
2023/01/13 07:02:02;;;;;;;1.50;0.50;;;9.10;99.90;;;;;;10455279;28;20309;-68
2023/01/13 07:07:02;;;;;;;3.67;0.73;;;9.00;99.90;;;;;;10464434;28;20706;-69
2023/01/13 07:12:06;;;;;;;1.20;0.53;;;9.00;99.90;;;;;;10469874;28;20306;-70
2023/01/13 07:17:07;;;;;;;1.57;0.53;;;8.90;99.90;;;;;;10466000;28;20597;-69
2023/01/13 07:22:07;;;;;;;3.30;0.70;;;8.90;99.90;;;;;;10471240;28;20275;-70
2023/01/13 07:27:08;;;;;;;1.23;0.70;;;8.80;99.90;;;;;;10446855;28;20711;-70
2023/01/13 07:32:09;;;;;;;1.50;0.40;;;8.80;99.90;;;;;;10464358;28;20230;-70
2023/01/13 07:37:09;;;;;;;2.07;0.50;;;8.90;99.90;;;;;;10471278;28;20291;-69
2023/01/13 07:47:29;;;;;;;2.90;0.60;;;8.80;99.90;;;;;;10465546;28;20218;-68
2023/01/13 07:52:30;;;;;;;1.67;0.57;;;8.80;99.90;;;;;;10470118;28;20450;-69
2023/01/13 07:57:30;;;;;;;2.53;0.60;;;8.80;99.90;;;;;;10464799;28;20709;-70
2023/01/13 08:02:31;;;;;;;4.07;0.63;;;8.80;99.90;;;;;;10470025;28;20214;-73
2023/01/13 08:07:32;;;;;;;2.60;0.50;;;8.80;99.90;;;;;;10472652;28;20219;-70
2023/01/13 08:17:55;;;;;;;1.53;0.50;;;8.80;99.90;;;;;;10468142;28;20305;-71
2023/01/13 08:22:59;;;;;;;4.03;0.90;;;8.80;99.90;;;;;;10464940;28;20315;-71
2023/01/13 08:28:00;;;;;;;2.67;0.60;;;8.90;99.90;;;;;;10479351;28;20868;-69
2023/01/13 08:33:00;;;;;;;2.27;0.67;;;8.90;99.90;;;;;;10462080;28;20321;-71
2023/01/13 08:38:01;;;;;;;1.10;0.40;;;9.10;99.90;;;;;;10474539;28;20218;-70
2023/01/13 08:43:02;;;;;;;1.13;0.30;;;9.20;99.90;;;;;;10472823;28;20326;-70
2023/01/13 08:48:03;;;;;;;1.33;0.63;;;9.40;99.90;;;;;;10474855;28;20238;-70
2023/01/13 08:53:04;;;;;;;2.80;0.57;;;9.50;99.90;;;;;;10477972;28;20705;-70
2023/01/13 08:58:04;;;;;;;2.20;0.67;;;9.60;99.90;;;;;;10477888;28;20238;-69
2023/01/13 09:03:08;;;;;;;1.90;0.60;;;9.70;99.90;;;;;;10467433;28;20219;-68
2023/01/13 09:08:08;;;;;;;1.43;0.57;;;9.80;99.90;;;;;;10477651;28;20701;-70
2023/01/13 09:13:12;;;;;;;1.73;0.90;;;9.90;99.90;;;;;;10471090;28;20289;-70
2023/01/13 09:18:12;;;;;;;4.03;0.57;;;9.90;99.90;;;;;;10476164;28;20227;-71
2023/01/13 09:23:13;;;;;;;2.23;0.80;;;9.80;99.90;;;;;;10451373;28;20227;-70
2023/01/13 09:28:13;;;;;;;2.23;0.80;;;10.00;99.90;;;;;;10475508;28;20962;-69
2023/01/13 09:38:33;;;;;;;2.53;0.77;;;10.50;99.90;;;;;;10469638;28;20227;-70
2023/01/13 09:43:53;;;;;;;2.33;0.80;;;10.70;99.90;;;;;;10473743;28;20218;-70
2023/01/13 09:48:56;;;;;;;3.23;0.63;;;10.90;99.90;;;;;;10470848;28;20652;-69
2023/01/13 09:54:05;;;;;;;2.97;1.00;;;12.00;99.90;;;;;;10470725;28;20219;-70
2023/01/13 09:59:11;;;;;;;2.67;0.80;;;12.80;99.90;;;;;;10455101;28;20275;-70
2023/01/13 10:04:13;;;;;;;2.57;1.20;;;13.00;99.90;;;;;;10449836;28;20223;-71
2023/01/13 10:09:45;;;;;;;3.93;1.10;;;15.20;99.90;;;;;;10481605;28;20227;-70
2023/01/13 10:14:54;;;;;;;3.93;1.20;;;18.90;99.90;;;;;;10469399;28;20253;-70
2023/01/13 10:20:16;;;;;;;2.70;1.13;;;22.00;95.40;;;;;;10469182;28;20224;-70
2023/01/13 10:25:52;;;;;;;4.47;1.13;;;23.20;82.50;;;;;;10474501;28;20261;-69
2023/01/13 10:30:53;;;;;;;3.70;1.33;;;24.30;67.60;;;;;;10492489;28;20273;-70
2023/01/13 10:36:02;;;;;;;3.27;1.60;;;24.40;61.90;;;;;;10474291;28;20695;-70
2023/01/13 10:41:26;;;;;;;4.87;1.20;;;22.60;61.90;;;;;;10476832;28;20278;-70
2023/01/13 10:46:28;;;;;;;3.33;1.10;;;18.60;74.90;;;;;;10450453;28;20318;-70
2023/01/13 10:51:38;;;;;;;4.90;1.60;;;16.70;83.40;;;;;;10462381;28;20231;-70
2023/01/13 10:56:43;;;;;;;3.00;0.90;;;15.40;90.80;;;;;;10473966;28;20228;-70
2023/01/13 11:01:59;;;;;;;5.33;1.43;;;18.60;84.60;;;;;;10477223;28;20225;-71
2023/01/13 11:07:02;;;;;;;5.97;1.60;;;19.80;81.00;;;;;;10470910;28;20325;-70
2023/01/13 11:12:04;;;;;;;9.63;1.73;;;21.40;71.50;;;;;;10466686;28;20234;-70
2023/01/13 11:17:27;;;;;;;5.17;2.30;;;23.30;62.10;;;;;;10470433;28;20235;-70
2023/01/13 11:22:35;;;;;;;4.37;1.30;;;23.70;59.30;;;;;;10465725;28;20719;-71
2023/01/13 11:28:22;;;;;;;5.43;1.57;;;23.20;57.00;;;;;;10472351;28;20324;-71
2023/01/13 11:33:42;;;;;;;8.27;1.80;;;20.40;63.40;;;;;;10364491;28;20235;-70
2023/01/13 11:38:53;;;;;;;6.13;1.87;;;16.70;76.10;;;;;;10449326;28;20262;-70
2023/01/13 11:44:40;;;;;;;4.80;1.87;;;14.90;83.40;;;;;;10467084;28;20662;-71
2023/01/13 11:49:41;;;;;;;4.67;1.50;;;14.30;88.90;;;;;;10292065;28;20236;-71
2023/01/13 11:55:06;;;;;;;7.37;1.80;;;14.10;90.90;;;;;;10429991;28;20222;-71
2023/01/13 12:00:23;;;;;;;7.97;1.63;;;13.80;90.30;;;;;;10451650;28;20603;-71
2023/01/13 12:05:38;;;;;;;7.77;1.97;;;13.50;90.70;;;;;;10476388;28;20232;-70
2023/01/13 12:11:07;;;;;;;10.07;1.80;;;13.20;91.60;;;;;;10472020;28;20291;-69
2023/01/13 12:16:23;;;;;;;8.07;1.87;;;13.10;92.70;;;;;;10473336;28;20227;-70
2023/01/13 12:21:28;;;;;;;8.17;1.70;;;13.50;92.60;;;;;;10471395;28;20231;-69
2023/01/13 12:26:33;;;;;;;4.13;1.70;;;13.60;92.20;;;;;;10502131;28;20273;-69
2023/01/13 12:31:41;;;;;;;7.97;1.80;;;13.40;93.10;;;;;;10479137;28;20246;-70
2023/01/13 12:36:45;;;;;;;8.33;1.60;;;13.00;93.50;;;;;;10490862;28;20724;-69
2023/01/13 12:47:42;;;;;;;8.27;1.63;;;12.80;93.80;;;;;;10455245;28;20234;-70
2023/01/13 12:52:43;;;;;;;9.17;1.90;;;12.40;94.60;;;;;;10476969;28;20608;-70
2023/01/13 12:58:07;;;;;;;9.10;2.17;;;12.30;97.20;;;;;;10456768;28;20218;-70
2023/01/13 13:03:13;;;;;;;5.10;1.50;;;12.50;99.00;;;;;;10466622;28;20657;-70
2023/01/13 13:08:17;;;;;;;4.53;1.60;;;12.90;97.00;;;;;;10476775;28;20693;-70
2023/01/13 13:13:47;;;;;;;6.67;1.63;;;13.20;96.90;;;;;;10451496;28;20331;-69
2023/01/13 13:18:49;;;;;;;6.90;1.90;;;13.00;94.90;;;;;;10454749;28;20314;-71
2023/01/13 13:24:02;;;;;;;6.53;1.80;;;12.60;95.90;;;;;;10454417;28;20231;-70
2023/01/13 13:29:14;;;;;;;6.33;1.53;;;12.00;97.70;;;;;;10476546;28;20250;-70
2023/01/13 13:34:38;;;;;;;6.47;1.73;;;11.80;99.30;;;;;;10476045;28;20322;-69
2023/01/13 13:50:47;;;;;;;7.60;1.93;;;12.00;99.30;;;;;;10476016;28;20306;-71
2023/01/13 13:55:53;;;;;;;4.90;1.53;;;11.90;99.30;;;;;;10477278;28;20660;-70
2023/01/13 14:00:56;;;;;;;6.07;1.60;;;11.90;99.70;;;;;;10477064;28;20227;-71
2023/01/13 14:05:59;;;;;;;6.87;1.70;;;11.80;99.90;;;;;;10482665;28;20262;-70
2023/01/13 14:11:00;;;;;;;4.90;1.43;;;11.70;99.90;;;;;;10482892;28;20253;-71
2023/01/13 14:16:04;;;;;;;5.50;1.30;;;11.40;99.90;;;;;;10468836;28;20872;-70
2023/01/13 14:21:24;;;;;;;6.77;1.83;;;11.40;99.90;;;;;;10503572;28;20639;-71
2023/01/13 14:26:31;;;;;;;7.63;1.50;;;11.40;99.90;;;;;;10469106;28;20601;-71
2023/01/13 14:31:33;;;;;;;5.90;1.43;;;11.30;99.90;;;;;;10503209;28;20219;-72
2023/01/13 14:36:37;;;;;;;7.20;1.63;;;11.00;99.90;;;;;;10473231;28;21050;-70
2023/01/13 14:41:40;;;;;;;6.60;1.40;;;10.80;99.90;;;;;;10484698;28;20769;-71
2023/01/13 14:46:45;;;;;;;4.93;1.37;;;10.70;99.90;;;;;;10468113;28;20249;-70
2023/01/13 14:51:45;;;;;;;4.10;1.40;;;10.70;99.90;;;;;;10483293;28;20406;-71
2023/01/13 14:56:52;;;;;;;5.93;1.30;;;10.70;99.90;;;;;;10488096;28;20289;-70
2023/01/13 15:01:53;;;;;;;5.63;1.70;;;10.60;99.90;;;;;;10468818;28;20259;-70
2023/01/13 15:06:56;;;;;;;6.63;1.80;;;10.40;99.90;;;;;;10472815;28;20247;-70
2023/01/13 15:11:57;;;;;;;5.57;1.53;;;10.30;99.90;;;;;;10466112;28;20289;-70
2023/01/13 15:16:58;;;;;;;5.90;1.40;;;10.20;99.90;;;;;;10463853;28;20225;-70
2023/01/13 15:21:58;;;;;;;5.37;1.63;;;10.20;99.90;;;;;;10464859;28;20299;-71
2023/01/13 15:27:01;;;;;;;5.37;1.73;;;10.20;99.90;;;;;;10468181;28;20224;-70
2023/01/13 15:32:02;;;;;;;5.33;1.53;;;10.10;99.90;;;;;;10474906;28;20226;-68
2023/01/13 15:37:02;;;;;;;8.53;2.50;;;10.10;99.90;;;;;;10457604;28;20596;-68
2023/01/13 15:47:26;;;;;;;7.90;1.60;;;10.00;99.90;;;;;;10475454;28;20250;-68
2023/01/13 15:52:26;;;;;;;7.03;1.83;;;9.90;99.90;;;;;;10474653;28;20235;-67
2023/01/13 15:57:30;;;;;;;5.20;2.00;;;9.80;99.90;;;;;;10489412;28;20296;-69
2023/01/13 16:02:31;;;;;;;6.20;1.73;;;9.80;99.90;;;;;;10473485;28;20241;-68
2023/01/13 16:07:31;;;;;;;6.03;1.70;;;9.80;99.90;;;;;;10454679;28;20220;-69
2023/01/13 16:12:32;;;;;;;4.90;1.40;;;9.80;99.90;;;;;;10470789;28;20599;-72
2023/01/13 16:17:34;;;;;;;6.80;1.87;;;9.70;99.90;;;;;;10475123;28;21008;-68
2023/01/13 16:22:35;;;;;;;11.47;2.17;;;9.50;99.90;;;;;;10487253;28;20254;-72
2023/01/13 16:27:35;;;;;;;10.10;1.90;;;9.50;99.90;;;;;;10480760;28;20474;-73
2023/01/13 16:32:36;;;;;;;9.50;2.20;;;9.40;99.90;;;;;;10448952;28;20231;-67
2023/01/13 16:37:36;;;;;;;9.20;2.03;;;9.30;99.90;;;;;;10469792;28;20219;-69
2023/01/13 16:42:37;;;;;;;6.73;1.67;;;9.30;99.90;;;;;;10476853;28;20870;-71
2023/01/13 16:47:38;;;;;;;6.63;1.60;;;9.30;99.90;;;;;;10475146;28;20249;-70
2023/01/13 16:52:39;;;;;;;8.97;2.00;;;9.30;99.90;;;;;;10472732;28;20278;-67
2023/01/13 16:57:40;;;;;;;6.73;1.87;;;9.40;99.90;;;;;;10479455;28;20223;-73
2023/01/13 17:02:40;;;;;;;8.93;1.70;;;9.40;99.90;;;;;;10500749;28;20674;-73
2023/01/13 17:07:43;;;;;;;8.23;1.90;;;9.30;99.90;;;;;;10484754;28;21055;-74
2023/01/13 17:12:44;;;;;;;7.03;2.03;;;9.40;99.90;;;;;;10474416;28;20250;-72
2023/01/13 17:17:47;;;;;;;7.90;1.60;;;9.30;99.90;;;;;;10451692;28;20224;-74
2023/01/13 17:22:51;;;;;;;6.47;1.80;;;9.30;99.90;;;;;;10458663;28;20306;-72
2023/01/13 17:27:51;;;;;;;7.37;1.90;;;9.20;99.90;;;;;;10469153;28;20334;-72
2023/01/13 17:32:52;;;;;;;11.93;1.90;;;9.10;99.90;;;;;;10473551;28;20309;-72
2023/01/13 17:37:53;;;;;;;6.67;1.67;;;9.10;99.90;;;;;;10493485;28;20566;-72
2023/01/13 17:42:53;;;;;;;7.30;1.93;;;9.10;99.90;;;;;;10482890;28;20668;-72
2023/01/13 17:47:58;;;;;;;8.63;1.80;;;9.20;99.90;;;;;;10474928;28;20211;-74
2023/01/13 17:52:59;;;;;;;7.60;2.07;;;9.20;99.90;;;;;;10479521;28;20224;-73
2023/01/13 17:57:59;;;;;;;8.33;2.03;;;9.30;99.90;;;;;;10478054;28;20829;-72
2023/01/13 18:03:00;;;;;;;8.50;1.83;;;9.30;99.90;;;;;;10487984;28;20648;-72
2023/01/13 18:08:00;;;;;;;10.73;2.40;;;9.30;99.90;;;;;;10464465;28;20219;-72
2023/01/13 18:13:02;;;;;;;7.57;2.03;;;9.30;99.90;;;;;;10471516;28;20227;-72
2023/01/13 18:18:03;;;;;;;9.63;1.90;;;9.10;99.90;;;;;;10497124;28;20210;-72
2023/01/13 18:28:22;;;;;;;10.03;2.80;;;9.00;99.90;;;;;;10469594;28;20774;-73
2023/01/13 18:33:23;;;;;;;6.60;2.00;;;9.10;99.90;;;;;;10466458;28;20341;-71
2023/01/13 18:38:26;;;;;;;9.37;2.00;;;9.10;99.90;;;;;;10483318;28;20219;-74
2023/01/13 18:43:27;;;;;;;7.23;1.80;;;9.10;99.90;;;;;;10477547;28;20218;-73
2023/01/13 18:48:30;;;;;;;9.90;2.00;;;9.10;99.90;;;;;;10491237;28;20221;-73
2023/01/13 18:53:31;;;;;;;10.00;2.00;;;9.10;99.90;;;;;;10495683;28;20657;-72
2023/01/13 18:58:32;;;;;;;10.43;1.80;;;9.10;99.90;;;;;;10461339;28;20210;-73
2023/01/13 19:03:32;;;;;;;8.17;2.20;;;9.10;99.90;;;;;;10478498;28;20236;-72
2023/01/13 19:08:33;;;;;;;11.87;2.07;;;9.10;99.90;;;;;;10442714;28;20669;-72
2023/01/13 19:13:34;;;;;;;9.43;2.50;;;9.10;99.90;;;;;;10451048;28;20248;-71
2023/01/13 19:18:35;;;;;;;8.27;2.57;;;9.00;99.90;;;;;;10446196;28;20218;-73
2023/01/13 19:23:36;;;;;;;12.87;4.03;;;9.00;99.90;;;;;;10468693;28;20636;-72
2023/01/13 19:28:39;;;;;;;9.80;2.60;;;8.90;99.90;;;;;;10497786;28;20225;-72
2023/01/13 19:33:39;;;;;;;9.67;2.23;;;8.90;99.90;;;;;;10447575;28;20287;-71
2023/01/13 19:38:40;;;;;;;8.87;2.00;;;8.80;99.90;;;;;;10464609;28;20892;-72
2023/01/13 19:49:00;;;;;;;7.07;2.17;;;8.90;99.90;;;;;;10479124;28;20218;-72
2023/01/13 19:54:03;;;;;;;8.23;2.83;;;8.90;99.90;;;;;;10478960;28;20315;-72
2023/01/13 19:59:04;;;;;;;8.40;2.33;;;8.90;99.90;;;;;;10447255;28;20574;-73
2023/01/13 20:04:12;;;;;;;9.63;2.63;;;8.90;99.90;;;;;;10482550;28;20301;-72
2023/01/13 20:09:13;;;;;;;8.00;2.47;;;8.80;99.90;;;;;;10457569;28;20225;-73
2023/01/13 20:14:17;;;;;;;10.40;2.27;;;8.80;99.90;;;;;;10454802;28;20226;-72
2023/01/13 20:19:17;;;;;;;8.43;2.07;;;8.80;99.90;;;;;;10483169;28;20310;-72
2023/01/13 20:24:18;;;;;;;9.57;2.10;;;8.80;99.90;;;;;;10471425;28;20297;-73
2023/01/13 20:29:19;;;;;;;8.30;2.23;;;8.80;99.90;;;;;;10489932;28;20239;-72
2023/01/13 20:34:20;;;;;;;10.30;2.10;;;8.70;99.90;;;;;;10482088;28;20216;-72
2023/01/13 20:39:26;;;;;;;6.77;1.93;;;8.70;99.90;;;;;;10475556;28;20221;-72
2023/01/13 20:44:27;;;;;;;8.23;2.33;;;8.70;99.90;;;;;;10458705;28;20316;-73
2023/01/13 20:49:29;;;;;;;7.37;2.00;;;8.70;99.90;;;;;;10483361;28;20242;-72
2023/01/13 20:54:29;;;;;;;7.43;1.90;;;8.70;99.90;;;;;;10480512;28;20217;-73
2023/01/13 20:59:30;;;;;;;9.23;2.13;;;8.70;99.90;;;;;;10479806;28;20215;-71
2023/01/13 21:04:31;;;;;;;8.43;2.20;;;8.70;99.90;;;;;;10472920;28;20210;-73
2023/01/13 21:09:31;;;;;;;9.60;2.37;;;8.70;99.90;;;;;;10496924;28;20224;-73
2023/01/13 21:19:51;;;;;;;11.37;2.53;;;8.70;99.90;;;;;;10474829;28;20688;-72
2023/01/13 21:24:51;;;;;;;11.00;2.50;;;8.60;99.90;;;;;;10480341;28;20341;-73
2023/01/13 21:29:52;;;;;;;10.10;2.50;;;8.60;99.90;;;;;;10465340;28;20245;-73
2023/01/13 21:34:57;;;;;;;10.83;2.20;;;8.70;99.90;;;;;;10483347;28;20279;-72
2023/01/13 21:39:58;;;;;;;7.23;2.20;;;8.70;99.90;;;;;;10464836;28;20292;-72
2023/01/13 21:50:27;;;;;;;11.40;3.10;;;8.70;99.90;;;;;;10482872;28;20230;-72
2023/01/13 21:55:28;;;;;;;11.40;2.77;;;8.70;99.90;;;;;;10482597;28;20219;-72
2023/01/13 22:00:30;;;;;;;9.80;2.50;;;8.60;99.90;;;;;;10498177;28;20227;-72
2023/01/13 22:05:31;;;;;;;12.47;2.70;;;8.60;99.90;;;;;;10472298;28;20218;-73
2023/01/13 22:10:32;;;;;;;13.30;2.50;;;8.60;99.90;;;;;;10488605;28;20229;-73
2023/01/13 22:15:36;;;;;;;10.70;2.57;;;8.50;99.90;;;;;;10495510;28;20232;-73
2023/01/13 22:20:36;;;;;;;11.87;2.90;;;8.50;99.90;;;;;;10488465;28;20250;-71
2023/01/13 22:25:37;;;;;;;8.53;2.17;;;8.50;99.90;;;;;;10478730;28;20250;-72
2023/01/13 22:30:38;;;;;;;13.43;3.00;;;8.40;99.90;;;;;;10496675;28;20696;-71
2023/01/13 22:35:38;;;;;;;11.97;2.40;;;8.50;99.90;;;;;;10474549;28;20228;-72
2023/01/13 22:40:39;;;;;;;9.17;2.23;;;8.50;99.90;;;;;;10469785;28;20313;-72
2023/01/13 22:45:39;;;;;;;10.47;2.50;;;8.40;99.90;;;;;;10474190;28;20284;-72
2023/01/13 22:50:40;;;;;;;10.33;2.90;;;8.50;99.90;;;;;;10471618;28;20232;-73
2023/01/13 22:55:41;;;;;;;10.70;2.77;;;8.50;99.90;;;;;;10495688;28;20308;-73
2023/01/13 23:00:41;;;;;;;10.33;2.30;;;8.50;99.90;;;;;;10461011;28;20227;-73
2023/01/13 23:05:44;;;;;;;10.27;2.67;;;8.40;99.90;;;;;;10458168;28;20281;-72
2023/01/13 23:10:44;;;;;;;8.63;2.97;;;8.50;99.90;;;;;;10471441;28;20234;-72
2023/01/13 23:15:46;;;;;;;11.07;2.57;;;8.40;99.90;;;;;;10492036;28;20252;-71
2023/01/13 23:20:47;;;;;;;17.50;4.17;;;8.40;99.90;;;;;;10470327;28;20236;-73
2023/01/13 23:25:55;;;;;;;9.70;2.43;;;8.50;99.90;;;;;;10479190;28;20654;-72
2023/01/13 23:30:56;;;;;;;8.00;3.20;;;8.50;99.90;;;;;;10463129;28;20616;-73
2023/01/13 23:36:01;;;;;;;9.87;3.10;;;8.50;99.90;;;;;;10478345;28;20320;-73
2023/01/13 23:41:07;;;;;;;9.40;2.43;;;8.50;99.90;;;;;;10449167;28;20397;-72
2023/01/13 23:46:11;;;;;;;12.53;2.43;;;8.50;99.90;;;;;;10463086;28;20686;-73
2023/01/13 23:51:12;;;;;;;11.03;2.53;;;8.50;99.90;;;;;;10510782;28;20236;-74
2023/01/13 23:56:19;;;;;;;10.93;2.33;;;8.50;99.90;;;;;;10480678;28;20962;-72
